sensor_id;sensor_type;location;lat;lon;timestamp;P1;durP1;ratioP1;P2;durP2;ratioP2
48685;SDS011;34485;51.536;3.816;2023-06-10T00:02:10;7.75;;;6.13;;
48685;SDS011;34485;51.536;3.816;2023-06-10T00:04:36;8.02;;;7.10;;
48685;SDS011;34485;51.536;3.816;2023-06-10T00:07:05;9.87;;;6.70;;
48685;SDS011;34485;51.536;3.816;2023-06-10T00:09:34;7.28;;;6.35;;
48685;SDS011;34485;51.536;3.816;2023-06-10T00:12:06;7.35;;;6.68;;
48685;SDS011;34485;51.536;3.816;2023-06-10T00:14:35;13.53;;;7.30;;
48685;SDS011;34485;51.536;3.816;2023-06-10T00:17:02;9.60;;;6.28;;
48685;SDS011;34485;51.536;3.816;2023-06-10T00:19:28;8.43;;;6.30;;
48685;SDS011;34485;51.536;3.816;2023-06-10T00:21:55;13.13;;;6.45;;
48685;SDS011;34485;51.536;3.816;2023-06-10T00:24:21;10.90;;;6.93;;
48685;SDS011;34485;51.536;3.816;2023-06-10T00:26:47;8.85;;;6.53;;
48685;SDS011;34485;51.536;3.816;2023-06-10T00:29:13;7.32;;;6.63;;
48685;SDS011;34485;51.536;3.816;2023-06-10T00:31:39;9.93;;;8.20;;
48685;SDS011;34485;51.536;3.816;2023-06-10T00:34:05;11.38;;;7.20;;
48685;SDS011;34485;51.536;3.816;2023-06-10T00:36:32;8.48;;;7.60;;
48685;SDS011;34485;51.536;3.816;2023-06-10T00:38:57;11.10;;;8.30;;
48685;SDS011;34485;51.536;3.816;2023-06-10T00:41:23;9.77;;;8.27;;
48685;SDS011;34485;51.536;3.816;2023-06-10T00:43:51;9.50;;;6.80;;
48685;SDS011;34485;51.536;3.816;2023-06-10T00:46:17;8.70;;;7.87;;
48685;SDS011;34485;51.536;3.816;2023-06-10T00:48:44;11.40;;;7.80;;
48685;SDS011;34485;51.536;3.816;2023-06-10T00:51:11;8.55;;;7.68;;
48685;SDS011;34485;51.536;3.816;2023-06-10T00:53:37;9.00;;;7.82;;
48685;SDS011;34485;51.536;3.816;2023-06-10T00:56:05;9.38;;;7.93;;
48685;SDS011;34485;51.536;3.816;2023-06-10T00:58:31;8.67;;;6.80;;
48685;SDS011;34485;51.536;3.816;2023-06-10T01:00:57;10.65;;;8.55;;
48685;SDS011;34485;51.536;3.816;2023-06-10T01:03:23;9.03;;;7.73;;
48685;SDS011;34485;51.536;3.816;2023-06-10T01:05:50;9.95;;;7.93;;
48685;SDS011;34485;51.536;3.816;2023-06-10T01:10:57;8.95;;;8.15;;
48685;SDS011;34485;51.536;3.816;2023-06-10T01:13:25;14.70;;;8.48;;
48685;SDS011;34485;51.536;3.816;2023-06-10T01:15:56;8.67;;;6.80;;
48685;SDS011;34485;51.536;3.816;2023-06-10T01:18:23;8.65;;;7.32;;
48685;SDS011;34485;51.536;3.816;2023-06-10T01:20:55;14.98;;;8.07;;
48685;SDS011;34485;51.536;3.816;2023-06-10T01:23:21;12.02;;;8.73;;
48685;SDS011;34485;51.536;3.816;2023-06-10T01:25:48;15.82;;;9.55;;
48685;SDS011;34485;51.536;3.816;2023-06-10T01:28:21;12.17;;;9.07;;
48685;SDS011;34485;51.536;3.816;2023-06-10T01:30:59;13.57;;;7.68;;
48685;SDS011;34485;51.536;3.816;2023-06-10T01:33:31;9.15;;;8.23;;
48685;SDS011;34485;51.536;3.816;2023-06-10T01:35:59;11.55;;;8.60;;
48685;SDS011;34485;51.536;3.816;2023-06-10T01:38:27;11.32;;;9.52;;
48685;SDS011;34485;51.536;3.816;2023-06-10T01:40:54;8.57;;;7.73;;
48685;SDS011;34485;51.536;3.816;2023-06-10T01:43:21;14.63;;;9.65;;
48685;SDS011;34485;51.536;3.816;2023-06-10T01:45:47;14.18;;;9.57;;
48685;SDS011;34485;51.536;3.816;2023-06-10T01:48:13;10.47;;;8.60;;
48685;SDS011;34485;51.536;3.816;2023-06-10T01:50:39;9.98;;;8.88;;
48685;SDS011;34485;51.536;3.816;2023-06-10T01:53:04;9.67;;;8.77;;
48685;SDS011;34485;51.536;3.816;2023-06-10T01:55:30;11.20;;;8.60;;
48685;SDS011;34485;51.536;3.816;2023-06-10T01:57:56;10.07;;;9.07;;
48685;SDS011;34485;51.536;3.816;2023-06-10T02:00:22;11.27;;;9.57;;
48685;SDS011;34485;51.536;3.816;2023-06-10T02:02:47;10.88;;;9.88;;
48685;SDS011;34485;51.536;3.816;2023-06-10T02:05:13;13.07;;;9.57;;
48685;SDS011;34485;51.536;3.816;2023-06-10T02:07:38;10.35;;;9.32;;
48685;SDS011;34485;51.536;3.816;2023-06-10T02:10:06;11.47;;;10.37;;
48685;SDS011;34485;51.536;3.816;2023-06-10T02:12:33;11.20;;;9.82;;
48685;SDS011;34485;51.536;3.816;2023-06-10T02:14:58;11.73;;;10.53;;
48685;SDS011;34485;51.536;3.816;2023-06-10T02:17:24;12.13;;;10.38;;
48685;SDS011;34485;51.536;3.816;2023-06-10T02:19:50;12.23;;;10.60;;
48685;SDS011;34485;51.536;3.816;2023-06-10T02:22:20;12.48;;;11.02;;
48685;SDS011;34485;51.536;3.816;2023-06-10T02:24:47;12.30;;;11.05;;
48685;SDS011;34485;51.536;3.816;2023-06-10T02:27:13;13.00;;;11.63;;
48685;SDS011;34485;51.536;3.816;2023-06-10T02:29:39;12.63;;;11.30;;
48685;SDS011;34485;51.536;3.816;2023-06-10T02:32:06;13.03;;;10.80;;
48685;SDS011;34485;51.536;3.816;2023-06-10T02:34:32;13.10;;;11.70;;
48685;SDS011;34485;51.536;3.816;2023-06-10T02:36:59;16.77;;;11.68;;
48685;SDS011;34485;51.536;3.816;2023-06-10T02:39:25;15.90;;;12.35;;
48685;SDS011;34485;51.536;3.816;2023-06-10T02:41:51;12.10;;;10.90;;
48685;SDS011;34485;51.536;3.816;2023-06-10T02:44:20;14.13;;;10.98;;
48685;SDS011;34485;51.536;3.816;2023-06-10T02:46:46;14.70;;;11.75;;
48685;SDS011;34485;51.536;3.816;2023-06-10T02:49:12;15.20;;;11.57;;
48685;SDS011;34485;51.536;3.816;2023-06-10T02:51:38;14.07;;;10.77;;
48685;SDS011;34485;51.536;3.816;2023-06-10T02:54:04;13.43;;;12.02;;
48685;SDS011;34485;51.536;3.816;2023-06-10T02:56:29;15.85;;;11.45;;
48685;SDS011;34485;51.536;3.816;2023-06-10T02:58:56;13.50;;;11.05;;
48685;SDS011;34485;51.536;3.816;2023-06-10T03:01:22;12.80;;;10.23;;
48685;SDS011;34485;51.536;3.816;2023-06-10T03:03:48;13.82;;;10.27;;
48685;SDS011;34485;51.536;3.816;2023-06-10T03:06:15;11.02;;;9.57;;
48685;SDS011;34485;51.536;3.816;2023-06-10T03:08:42;13.17;;;10.17;;
48685;SDS011;34485;51.536;3.816;2023-06-10T03:11:07;10.50;;;9.35;;
48685;SDS011;34485;51.536;3.816;2023-06-10T03:13:33;12.07;;;10.75;;
48685;SDS011;34485;51.536;3.816;2023-06-10T03:15:59;12.97;;;10.03;;
48685;SDS011;34485;51.536;3.816;2023-06-10T03:18:25;11.50;;;10.40;;
48685;SDS011;34485;51.536;3.816;2023-06-10T03:20:52;13.98;;;9.70;;
48685;SDS011;34485;51.536;3.816;2023-06-10T03:23:18;11.05;;;9.70;;
48685;SDS011;34485;51.536;3.816;2023-06-10T03:25:44;11.87;;;10.50;;
48685;SDS011;34485;51.536;3.816;2023-06-10T03:28:10;12.90;;;10.45;;
48685;SDS011;34485;51.536;3.816;2023-06-10T03:30:36;10.63;;;9.52;;
48685;SDS011;34485;51.536;3.816;2023-06-10T03:33:01;10.40;;;9.20;;
48685;SDS011;34485;51.536;3.816;2023-06-10T03:35:27;10.50;;;9.37;;
48685;SDS011;34485;51.536;3.816;2023-06-10T03:37:53;11.82;;;8.77;;
48685;SDS011;34485;51.536;3.816;2023-06-10T03:40:18;10.67;;;9.03;;
48685;SDS011;34485;51.536;3.816;2023-06-10T03:42:44;11.00;;;9.48;;
48685;SDS011;34485;51.536;3.816;2023-06-10T03:45:10;9.90;;;8.43;;
48685;SDS011;34485;51.536;3.816;2023-06-10T03:47:36;10.98;;;9.00;;
48685;SDS011;34485;51.536;3.816;2023-06-10T03:50:05;10.82;;;8.75;;
48685;SDS011;34485;51.536;3.816;2023-06-10T03:52:33;13.43;;;8.88;;
48685;SDS011;34485;51.536;3.816;2023-06-10T03:54:59;11.60;;;9.63;;
48685;SDS011;34485;51.536;3.816;2023-06-10T03:57:25;10.15;;;9.15;;
48685;SDS011;34485;51.536;3.816;2023-06-10T03:59:51;13.35;;;9.60;;
48685;SDS011;34485;51.536;3.816;2023-06-10T04:02:16;14.63;;;9.83;;
48685;SDS011;34485;51.536;3.816;2023-06-10T04:04:42;11.55;;;10.35;;
48685;SDS011;34485;51.536;3.816;2023-06-10T04:07:08;13.20;;;9.75;;
48685;SDS011;34485;51.536;3.816;2023-06-10T04:09:34;9.80;;;8.63;;
48685;SDS011;34485;51.536;3.816;2023-06-10T04:12:01;12.73;;;10.05;;
48685;SDS011;34485;51.536;3.816;2023-06-10T04:14:27;10.45;;;9.35;;
48685;SDS011;34485;51.536;3.816;2023-06-10T04:16:53;11.77;;;9.77;;
48685;SDS011;34485;51.536;3.816;2023-06-10T04:19:19;10.55;;;9.57;;
48685;SDS011;34485;51.536;3.816;2023-06-10T04:21:46;11.38;;;9.18;;
48685;SDS011;34485;51.536;3.816;2023-06-10T04:24:12;12.70;;;9.40;;
48685;SDS011;34485;51.536;3.816;2023-06-10T04:26:37;13.53;;;10.07;;
48685;SDS011;34485;51.536;3.816;2023-06-10T04:29:03;10.15;;;8.98;;
48685;SDS011;34485;51.536;3.816;2023-06-10T04:31:29;10.70;;;9.57;;
48685;SDS011;34485;51.536;3.816;2023-06-10T04:33:55;11.75;;;9.50;;
48685;SDS011;34485;51.536;3.816;2023-06-10T04:36:20;13.50;;;8.93;;
48685;SDS011;34485;51.536;3.816;2023-06-10T04:38:48;14.00;;;8.60;;
48685;SDS011;34485;51.536;3.816;2023-06-10T04:41:14;13.17;;;8.87;;
48685;SDS011;34485;51.536;3.816;2023-06-10T04:43:39;11.90;;;8.95;;
48685;SDS011;34485;51.536;3.816;2023-06-10T04:46:05;12.33;;;9.77;;
48685;SDS011;34485;51.536;3.816;2023-06-10T04:48:30;9.75;;;8.20;;
48685;SDS011;34485;51.536;3.816;2023-06-10T04:50:58;10.13;;;8.40;;
48685;SDS011;34485;51.536;3.816;2023-06-10T04:53:24;11.27;;;8.32;;
48685;SDS011;34485;51.536;3.816;2023-06-10T04:55:49;9.75;;;8.55;;
48685;SDS011;34485;51.536;3.816;2023-06-10T04:58:15;8.57;;;7.77;;
48685;SDS011;34485;51.536;3.816;2023-06-10T05:00:41;10.53;;;9.23;;
48685;SDS011;34485;51.536;3.816;2023-06-10T05:03:07;11.98;;;8.43;;
48685;SDS011;34485;51.536;3.816;2023-06-10T05:05:32;16.15;;;9.38;;
48685;SDS011;34485;51.536;3.816;2023-06-10T05:07:58;10.60;;;8.73;;
48685;SDS011;34485;51.536;3.816;2023-06-10T05:10:23;12.07;;;9.40;;
48685;SDS011;34485;51.536;3.816;2023-06-10T05:12:49;12.50;;;8.73;;
48685;SDS011;34485;51.536;3.816;2023-06-10T05:15:15;11.87;;;7.50;;
48685;SDS011;34485;51.536;3.816;2023-06-10T05:17:41;9.07;;;8.18;;
48685;SDS011;34485;51.536;3.816;2023-06-10T05:20:07;9.48;;;8.00;;
48685;SDS011;34485;51.536;3.816;2023-06-10T05:22:33;11.20;;;8.43;;
48685;SDS011;34485;51.536;3.816;2023-06-10T05:24:59;9.53;;;8.63;;
48685;SDS011;34485;51.536;3.816;2023-06-10T05:27:25;11.15;;;9.00;;
48685;SDS011;34485;51.536;3.816;2023-06-10T05:29:50;12.00;;;9.17;;
48685;SDS011;34485;51.536;3.816;2023-06-10T05:32:16;9.25;;;8.15;;
48685;SDS011;34485;51.536;3.816;2023-06-10T05:34:42;9.35;;;8.50;;
48685;SDS011;34485;51.536;3.816;2023-06-10T05:37:08;13.77;;;8.67;;
48685;SDS011;34485;51.536;3.816;2023-06-10T05:39:35;8.50;;;7.27;;
48685;SDS011;34485;51.536;3.816;2023-06-10T05:42:03;11.57;;;9.30;;
48685;SDS011;34485;51.536;3.816;2023-06-10T05:44:29;10.80;;;9.07;;
48685;SDS011;34485;51.536;3.816;2023-06-10T05:46:55;10.90;;;8.67;;
48685;SDS011;34485;51.536;3.816;2023-06-10T05:49:20;9.30;;;8.37;;
48685;SDS011;34485;51.536;3.816;2023-06-10T05:51:46;8.97;;;8.17;;
48685;SDS011;34485;51.536;3.816;2023-06-10T05:54:11;9.88;;;8.88;;
48685;SDS011;34485;51.536;3.816;2023-06-10T05:56:37;9.13;;;8.20;;
48685;SDS011;34485;51.536;3.816;2023-06-10T05:59:03;8.93;;;8.07;;
48685;SDS011;34485;51.536;3.816;2023-06-10T06:01:30;11.63;;;8.05;;
48685;SDS011;34485;51.536;3.816;2023-06-10T06:03:55;8.43;;;7.57;;
48685;SDS011;34485;51.536;3.816;2023-06-10T06:06:21;11.83;;;9.37;;
48685;SDS011;34485;51.536;3.816;2023-06-10T06:08:47;11.35;;;8.88;;
48685;SDS011;34485;51.536;3.816;2023-06-10T06:11:12;13.87;;;8.37;;
48685;SDS011;34485;51.536;3.816;2023-06-10T06:13:38;13.48;;;7.88;;
48685;SDS011;34485;51.536;3.816;2023-06-10T06:16:04;9.40;;;8.30;;
48685;SDS011;34485;51.536;3.816;2023-06-10T06:18:30;8.98;;;8.07;;
48685;SDS011;34485;51.536;3.816;2023-06-10T06:20:55;10.43;;;7.87;;
48685;SDS011;34485;51.536;3.816;2023-06-10T06:23:21;10.85;;;8.20;;
48685;SDS011;34485;51.536;3.816;2023-06-10T06:25:46;11.97;;;8.23;;
48685;SDS011;34485;51.536;3.816;2023-06-10T06:28:12;12.75;;;8.23;;
48685;SDS011;34485;51.536;3.816;2023-06-10T06:30:38;11.07;;;8.07;;
48685;SDS011;34485;51.536;3.816;2023-06-10T06:33:03;10.13;;;7.70;;
48685;SDS011;34485;51.536;3.816;2023-06-10T06:35:33;9.20;;;8.27;;
48685;SDS011;34485;51.536;3.816;2023-06-10T06:37:59;10.48;;;7.55;;
48685;SDS011;34485;51.536;3.816;2023-06-10T06:40:24;10.73;;;7.77;;
48685;SDS011;34485;51.536;3.816;2023-06-10T06:42:50;9.10;;;7.57;;
48685;SDS011;34485;51.536;3.816;2023-06-10T06:45:16;10.50;;;7.80;;
48685;SDS011;34485;51.536;3.816;2023-06-10T06:47:41;13.32;;;8.48;;
48685;SDS011;34485;51.536;3.816;2023-06-10T06:50:08;11.25;;;8.38;;
48685;SDS011;34485;51.536;3.816;2023-06-10T06:52:34;12.20;;;8.00;;
48685;SDS011;34485;51.536;3.816;2023-06-10T06:55:00;12.50;;;7.97;;
48685;SDS011;34485;51.536;3.816;2023-06-10T06:57:25;9.43;;;7.90;;
48685;SDS011;34485;51.536;3.816;2023-06-10T06:59:51;9.95;;;7.55;;
48685;SDS011;34485;51.536;3.816;2023-06-10T07:02:17;17.30;;;8.30;;
48685;SDS011;34485;51.536;3.816;2023-06-10T07:04:43;8.85;;;7.95;;
48685;SDS011;34485;51.536;3.816;2023-06-10T07:07:10;10.70;;;7.68;;
48685;SDS011;34485;51.536;3.816;2023-06-10T07:09:37;12.07;;;7.77;;
48685;SDS011;34485;51.536;3.816;2023-06-10T07:12:02;11.63;;;8.10;;
48685;SDS011;34485;51.536;3.816;2023-06-10T07:14:28;9.43;;;7.53;;
48685;SDS011;34485;51.536;3.816;2023-06-10T07:16:54;7.80;;;7.00;;
48685;SDS011;34485;51.536;3.816;2023-06-10T07:19:20;7.63;;;6.90;;
48685;SDS011;34485;51.536;3.816;2023-06-10T07:21:45;8.65;;;7.65;;
48685;SDS011;34485;51.536;3.816;2023-06-10T07:24:11;11.97;;;8.00;;
48685;SDS011;34485;51.536;3.816;2023-06-10T07:26:36;9.07;;;7.93;;
48685;SDS011;34485;51.536;3.816;2023-06-10T07:29:02;7.80;;;7.10;;
48685;SDS011;34485;51.536;3.816;2023-06-10T07:31:28;8.63;;;7.35;;
48685;SDS011;34485;51.536;3.816;2023-06-10T07:33:53;7.97;;;7.17;;
48685;SDS011;34485;51.536;3.816;2023-06-10T07:36:19;29.17;;;8.20;;
48685;SDS011;34485;51.536;3.816;2023-06-10T07:38:45;10.37;;;7.30;;
48685;SDS011;34485;51.536;3.816;2023-06-10T07:41:10;11.15;;;7.00;;
48685;SDS011;34485;51.536;3.816;2023-06-10T07:43:37;10.03;;;7.20;;
48685;SDS011;34485;51.536;3.816;2023-06-10T07:46:03;14.63;;;7.40;;
48685;SDS011;34485;51.536;3.816;2023-06-10T07:48:30;7.90;;;7.05;;
48685;SDS011;34485;51.536;3.816;2023-06-10T07:50:56;9.73;;;7.72;;
48685;SDS011;34485;51.536;3.816;2023-06-10T07:53:21;8.03;;;7.23;;
48685;SDS011;34485;51.536;3.816;2023-06-10T07:55:47;9.27;;;6.77;;
48685;SDS011;34485;51.536;3.816;2023-06-10T07:58:13;9.32;;;7.30;;
48685;SDS011;34485;51.536;3.816;2023-06-10T08:00:38;10.30;;;8.60;;
48685;SDS011;34485;51.536;3.816;2023-06-10T08:03:04;9.05;;;8.15;;
48685;SDS011;34485;51.536;3.816;2023-06-10T08:05:30;8.80;;;7.40;;
48685;SDS011;34485;51.536;3.816;2023-06-10T08:07:55;7.70;;;7.00;;
48685;SDS011;34485;51.536;3.816;2023-06-10T08:10:21;8.33;;;7.43;;
48685;SDS011;34485;51.536;3.816;2023-06-10T08:12:47;13.25;;;7.53;;
48685;SDS011;34485;51.536;3.816;2023-06-10T08:15:12;8.37;;;7.10;;
48685;SDS011;34485;51.536;3.816;2023-06-10T08:17:38;16.63;;;6.93;;
48685;SDS011;34485;51.536;3.816;2023-06-10T08:20:05;7.63;;;6.93;;
48685;SDS011;34485;51.536;3.816;2023-06-10T08:22:31;9.15;;;6.75;;
48685;SDS011;34485;51.536;3.816;2023-06-10T08:24:57;8.93;;;7.00;;
48685;SDS011;34485;51.536;3.816;2023-06-10T08:27:22;8.83;;;7.00;;
48685;SDS011;34485;51.536;3.816;2023-06-10T08:29:48;7.40;;;6.68;;
48685;SDS011;34485;51.536;3.816;2023-06-10T08:32:14;10.97;;;6.73;;
48685;SDS011;34485;51.536;3.816;2023-06-10T08:34:39;8.18;;;6.93;;
48685;SDS011;34485;51.536;3.816;2023-06-10T08:37:06;8.50;;;7.07;;
48685;SDS011;34485;51.536;3.816;2023-06-10T08:39:32;7.20;;;6.60;;
48685;SDS011;34485;51.536;3.816;2023-06-10T08:44:42;7.87;;;7.07;;
48685;SDS011;34485;51.536;3.816;2023-06-10T08:47:15;7.72;;;6.75;;
48685;SDS011;34485;51.536;3.816;2023-06-10T08:49:45;7.43;;;6.82;;
48685;SDS011;34485;51.536;3.816;2023-06-10T08:52:18;10.40;;;7.30;;
48685;SDS011;34485;51.536;3.816;2023-06-10T08:54:56;7.85;;;6.85;;
48685;SDS011;34485;51.536;3.816;2023-06-10T08:57:25;8.10;;;6.57;;
48685;SDS011;34485;51.536;3.816;2023-06-10T08:59:55;10.50;;;6.78;;
48685;SDS011;34485;51.536;3.816;2023-06-10T09:02:22;7.55;;;6.60;;
48685;SDS011;34485;51.536;3.816;2023-06-10T09:04:49;7.15;;;6.55;;
48685;SDS011;34485;51.536;3.816;2023-06-10T09:07:15;9.40;;;6.18;;
48685;SDS011;34485;51.536;3.816;2023-06-10T09:09:42;6.63;;;6.00;;
48685;SDS011;34485;51.536;3.816;2023-06-10T09:12:09;10.10;;;6.70;;
48685;SDS011;34485;51.536;3.816;2023-06-10T09:14:35;7.78;;;6.32;;
48685;SDS011;34485;51.536;3.816;2023-06-10T09:17:01;6.77;;;6.27;;
48685;SDS011;34485;51.536;3.816;2023-06-10T09:19:28;7.63;;;6.37;;
48685;SDS011;34485;51.536;3.816;2023-06-10T09:21:54;6.43;;;5.80;;
48685;SDS011;34485;51.536;3.816;2023-06-10T09:24:23;6.63;;;6.03;;
48685;SDS011;34485;51.536;3.816;2023-06-10T09:26:49;7.43;;;6.72;;
48685;SDS011;34485;51.536;3.816;2023-06-10T09:29:16;8.50;;;6.73;;
48685;SDS011;34485;51.536;3.816;2023-06-10T09:31:42;12.85;;;7.15;;
48685;SDS011;34485;51.536;3.816;2023-06-10T09:34:10;7.90;;;6.70;;
48685;SDS011;34485;51.536;3.816;2023-06-10T09:36:41;6.85;;;6.28;;
48685;SDS011;34485;51.536;3.816;2023-06-10T09:39:17;7.78;;;6.30;;
48685;SDS011;34485;51.536;3.816;2023-06-10T09:41:44;9.97;;;6.37;;
48685;SDS011;34485;51.536;3.816;2023-06-10T09:46:40;7.40;;;5.95;;
48685;SDS011;34485;51.536;3.816;2023-06-10T09:49:06;12.05;;;5.97;;
48685;SDS011;34485;51.536;3.816;2023-06-10T09:51:32;6.63;;;6.03;;
48685;SDS011;34485;51.536;3.816;2023-06-10T09:53:59;15.85;;;5.47;;
48685;SDS011;34485;51.536;3.816;2023-06-10T09:56:34;11.90;;;6.35;;
48685;SDS011;34485;51.536;3.816;2023-06-10T09:59:00;9.02;;;5.53;;
48685;SDS011;34485;51.536;3.816;2023-06-10T10:01:27;6.28;;;5.47;;
48685;SDS011;34485;51.536;3.816;2023-06-10T10:03:53;6.93;;;5.87;;
48685;SDS011;34485;51.536;3.816;2023-06-10T10:06:19;6.43;;;5.93;;
48685;SDS011;34485;51.536;3.816;2023-06-10T10:08:46;11.57;;;5.78;;
48685;SDS011;34485;51.536;3.816;2023-06-10T10:11:14;5.95;;;5.55;;
48685;SDS011;34485;51.536;3.816;2023-06-10T10:13:42;6.87;;;5.90;;
48685;SDS011;34485;51.536;3.816;2023-06-10T10:16:11;10.55;;;5.55;;
48685;SDS011;34485;51.536;3.816;2023-06-10T10:18:47;15.73;;;5.97;;
48685;SDS011;34485;51.536;3.816;2023-06-10T10:21:18;5.95;;;5.45;;
48685;SDS011;34485;51.536;3.816;2023-06-10T10:26:41;6.60;;;6.00;;
48685;SDS011;34485;51.536;3.816;2023-06-10T10:29:10;7.50;;;6.25;;
48685;SDS011;34485;51.536;3.816;2023-06-10T10:31:39;8.50;;;5.70;;
48685;SDS011;34485;51.536;3.816;2023-06-10T10:34:09;7.10;;;5.50;;
48685;SDS011;34485;51.536;3.816;2023-06-10T10:36:40;5.93;;;5.43;;
48685;SDS011;34485;51.536;3.816;2023-06-10T10:39:06;10.80;;;6.17;;
48685;SDS011;34485;51.536;3.816;2023-06-10T10:41:33;6.47;;;5.88;;
48685;SDS011;34485;51.536;3.816;2023-06-10T10:44:01;6.50;;;6.00;;
48685;SDS011;34485;51.536;3.816;2023-06-10T10:46:30;7.35;;;6.68;;
48685;SDS011;34485;51.536;3.816;2023-06-10T10:49:06;6.50;;;5.80;;
48685;SDS011;34485;51.536;3.816;2023-06-10T10:51:34;6.70;;;5.83;;
48685;SDS011;34485;51.536;3.816;2023-06-10T10:54:13;9.43;;;5.63;;
48685;SDS011;34485;51.536;3.816;2023-06-10T10:56:39;7.57;;;6.30;;
48685;SDS011;34485;51.536;3.816;2023-06-10T10:59:05;7.20;;;6.60;;
48685;SDS011;34485;51.536;3.816;2023-06-10T11:01:41;6.77;;;6.10;;
48685;SDS011;34485;51.536;3.816;2023-06-10T11:04:10;7.63;;;6.75;;
48685;SDS011;34485;51.536;3.816;2023-06-10T11:06:37;13.90;;;7.43;;
48685;SDS011;34485;51.536;3.816;2023-06-10T11:09:25;7.00;;;6.30;;
48685;SDS011;34485;51.536;3.816;2023-06-10T11:11:57;8.88;;;7.18;;
48685;SDS011;34485;51.536;3.816;2023-06-10T11:14:27;8.38;;;7.47;;
48685;SDS011;34485;51.536;3.816;2023-06-10T11:16:53;7.90;;;6.60;;
48685;SDS011;34485;51.536;3.816;2023-06-10T11:19:34;9.52;;;7.50;;
48685;SDS011;34485;51.536;3.816;2023-06-10T11:22:03;8.83;;;7.47;;
48685;SDS011;34485;51.536;3.816;2023-06-10T11:24:31;10.45;;;6.10;;
48685;SDS011;34485;51.536;3.816;2023-06-10T11:30:27;7.93;;;6.53;;
48685;SDS011;34485;51.536;3.816;2023-06-10T11:32:44;9.83;;;6.57;;
48685;SDS011;34485;51.536;3.816;2023-06-10T11:35:10;9.35;;;6.72;;
48685;SDS011;34485;51.536;3.816;2023-06-10T11:37:36;9.77;;;6.20;;
48685;SDS011;34485;51.536;3.816;2023-06-10T11:40:02;11.20;;;5.97;;
48685;SDS011;34485;51.536;3.816;2023-06-10T11:42:28;8.53;;;6.53;;
48685;SDS011;34485;51.536;3.816;2023-06-10T11:44:55;9.10;;;6.00;;
48685;SDS011;34485;51.536;3.816;2023-06-10T11:47:20;6.30;;;5.70;;
48685;SDS011;34485;51.536;3.816;2023-06-10T11:49:55;7.67;;;6.40;;
48685;SDS011;34485;51.536;3.816;2023-06-10T11:52:28;6.05;;;5.47;;
48685;SDS011;34485;51.536;3.816;2023-06-10T11:54:57;7.95;;;5.90;;
48685;SDS011;34485;51.536;3.816;2023-06-10T11:57:22;7.57;;;5.93;;
48685;SDS011;34485;51.536;3.816;2023-06-10T11:59:48;9.40;;;6.23;;
48685;SDS011;34485;51.536;3.816;2023-06-10T12:02:17;6.65;;;5.53;;
48685;SDS011;34485;51.536;3.816;2023-06-10T12:04:44;8.90;;;6.45;;
48685;SDS011;34485;51.536;3.816;2023-06-10T12:07:14;8.00;;;5.80;;
48685;SDS011;34485;51.536;3.816;2023-06-10T12:09:46;6.88;;;6.18;;
48685;SDS011;34485;51.536;3.816;2023-06-10T12:12:11;10.02;;;5.53;;
48685;SDS011;34485;51.536;3.816;2023-06-10T12:14:56;7.30;;;5.67;;
48685;SDS011;34485;51.536;3.816;2023-06-10T12:20:02;6.43;;;5.38;;
48685;SDS011;34485;51.536;3.816;2023-06-10T12:22:42;13.00;;;5.30;;
48685;SDS011;34485;51.536;3.816;2023-06-10T12:25:09;5.30;;;4.80;;
48685;SDS011;34485;51.536;3.816;2023-06-10T12:27:35;5.05;;;4.55;;
48685;SDS011;34485;51.536;3.816;2023-06-10T12:30:04;9.27;;;4.60;;
48685;SDS011;34485;51.536;3.816;2023-06-10T12:32:41;8.77;;;5.32;;
48685;SDS011;34485;51.536;3.816;2023-06-10T12:35:11;8.93;;;5.40;;
48685;SDS011;34485;51.536;3.816;2023-06-10T12:37:38;4.90;;;4.50;;
48685;SDS011;34485;51.536;3.816;2023-06-10T12:40:05;5.53;;;4.80;;
48685;SDS011;34485;51.536;3.816;2023-06-10T12:42:33;6.93;;;4.70;;
48685;SDS011;34485;51.536;3.816;2023-06-10T12:45:01;9.40;;;5.38;;
48685;SDS011;34485;51.536;3.816;2023-06-10T12:47:30;5.13;;;4.63;;
48685;SDS011;34485;51.536;3.816;2023-06-10T12:50:00;9.83;;;5.33;;
48685;SDS011;34485;51.536;3.816;2023-06-10T12:52:26;5.03;;;4.53;;
48685;SDS011;34485;51.536;3.816;2023-06-10T12:54:53;6.45;;;4.72;;
48685;SDS011;34485;51.536;3.816;2023-06-10T12:57:19;5.95;;;4.93;;
48685;SDS011;34485;51.536;3.816;2023-06-10T12:59:46;9.93;;;4.77;;
48685;SDS011;34485;51.536;3.816;2023-06-10T13:02:17;5.22;;;4.82;;
48685;SDS011;34485;51.536;3.816;2023-06-10T13:04:44;5.55;;;5.05;;
48685;SDS011;34485;51.536;3.816;2023-06-10T13:07:10;5.68;;;4.95;;
48685;SDS011;34485;51.536;3.816;2023-06-10T13:09:36;7.00;;;4.70;;
48685;SDS011;34485;51.536;3.816;2023-06-10T13:12:02;5.70;;;5.20;;
48685;SDS011;34485;51.536;3.816;2023-06-10T13:14:28;5.40;;;4.90;;
48685;SDS011;34485;51.536;3.816;2023-06-10T13:16:54;6.67;;;4.50;;
48685;SDS011;34485;51.536;3.816;2023-06-10T13:19:20;5.03;;;4.53;;
48685;SDS011;34485;51.536;3.816;2023-06-10T13:21:47;5.50;;;5.00;;
48685;SDS011;34485;51.536;3.816;2023-06-10T13:24:16;4.93;;;4.50;;
48685;SDS011;34485;51.536;3.816;2023-06-10T13:26:42;5.00;;;4.60;;
48685;SDS011;34485;51.536;3.816;2023-06-10T13:29:08;8.27;;;4.70;;
48685;SDS011;34485;51.536;3.816;2023-06-10T13:31:38;8.57;;;5.13;;
48685;SDS011;34485;51.536;3.816;2023-06-10T13:34:05;5.72;;;5.03;;
48685;SDS011;34485;51.536;3.816;2023-06-10T13:36:31;7.70;;;5.05;;
48685;SDS011;34485;51.536;3.816;2023-06-10T13:38:56;6.03;;;5.20;;
48685;SDS011;34485;51.536;3.816;2023-06-10T13:41:22;8.18;;;5.35;;
48685;SDS011;34485;51.536;3.816;2023-06-10T13:43:48;8.50;;;5.40;;
48685;SDS011;34485;51.536;3.816;2023-06-10T13:46:14;6.27;;;4.70;;
48685;SDS011;34485;51.536;3.816;2023-06-10T13:48:39;8.93;;;5.43;;
48685;SDS011;34485;51.536;3.816;2023-06-10T13:51:05;6.07;;;5.03;;
48685;SDS011;34485;51.536;3.816;2023-06-10T13:53:31;5.55;;;4.80;;
48685;SDS011;34485;51.536;3.816;2023-06-10T13:55:57;8.23;;;4.60;;
48685;SDS011;34485;51.536;3.816;2023-06-10T13:58:23;6.47;;;4.87;;
48685;SDS011;34485;51.536;3.816;2023-06-10T14:00:48;5.32;;;4.80;;
48685;SDS011;34485;51.536;3.816;2023-06-10T14:03:14;5.27;;;4.60;;
48685;SDS011;34485;51.536;3.816;2023-06-10T14:05:40;10.63;;;7.15;;
48685;SDS011;34485;51.536;3.816;2023-06-10T14:08:06;8.20;;;6.63;;
48685;SDS011;34485;51.536;3.816;2023-06-10T14:10:32;7.70;;;6.15;;
48685;SDS011;34485;51.536;3.816;2023-06-10T14:12:58;5.80;;;5.25;;
48685;SDS011;34485;51.536;3.816;2023-06-10T14:15:23;6.37;;;5.20;;
48685;SDS011;34485;51.536;3.816;2023-06-10T14:17:49;5.38;;;4.88;;
48685;SDS011;34485;51.536;3.816;2023-06-10T14:20:15;9.03;;;5.03;;
48685;SDS011;34485;51.536;3.816;2023-06-10T14:22:41;6.28;;;5.07;;
48685;SDS011;34485;51.536;3.816;2023-06-10T14:25:06;5.30;;;4.77;;
48685;SDS011;34485;51.536;3.816;2023-06-10T14:27:32;5.10;;;4.60;;
48685;SDS011;34485;51.536;3.816;2023-06-10T14:29:58;9.17;;;4.77;;
48685;SDS011;34485;51.536;3.816;2023-06-10T14:32:23;6.00;;;5.10;;
48685;SDS011;34485;51.536;3.816;2023-06-10T14:34:49;4.87;;;4.47;;
48685;SDS011;34485;51.536;3.816;2023-06-10T14:37:15;6.28;;;5.07;;
48685;SDS011;34485;51.536;3.816;2023-06-10T14:39:40;5.90;;;4.57;;
48685;SDS011;34485;51.536;3.816;2023-06-10T14:42:06;5.68;;;5.20;;
48685;SDS011;34485;51.536;3.816;2023-06-10T14:44:32;5.10;;;4.60;;
48685;SDS011;34485;51.536;3.816;2023-06-10T14:46:57;8.30;;;5.07;;
48685;SDS011;34485;51.536;3.816;2023-06-10T14:49:23;5.50;;;5.00;;
48685;SDS011;34485;51.536;3.816;2023-06-10T14:51:49;9.10;;;5.70;;
48685;SDS011;34485;51.536;3.816;2023-06-10T14:54:15;4.87;;;4.43;;
48685;SDS011;34485;51.536;3.816;2023-06-10T14:56:41;5.15;;;4.65;;